createdAt,value
2022-09-15T00:00:30.817Z,15.60
2022-09-15T00:02:57.500Z,13.52
2022-09-15T00:05:24.176Z,16.27
2022-09-15T00:07:50.835Z,24.52
2022-09-15T00:10:17.724Z,14.05
2022-09-15T00:12:44.366Z,19.58
2022-09-15T00:15:14.750Z,13.07
2022-09-15T00:17:43.049Z,14.63
2022-09-15T00:20:10.622Z,16.17
2022-09-15T00:22:37.376Z,17.05
2022-09-15T00:25:04.385Z,14.00
2022-09-15T00:27:32.577Z,13.15
2022-09-15T00:29:59.129Z,18.00
2022-09-15T00:32:26.339Z,12.75
2022-09-15T00:34:53.651Z,9.77
2022-09-15T00:37:20.287Z,12.88
2022-09-15T00:39:50.030Z,17.05
2022-09-15T00:42:18.942Z,11.02
2022-09-15T00:44:55.464Z,16.67
2022-09-15T00:47:36.281Z,11.00
2022-09-15T00:50:10.950Z,13.80
2022-09-15T00:52:58.749Z,10.82
2022-09-15T00:55:32.347Z,13.70
2022-09-15T00:58:06.769Z,13.15
2022-09-15T01:00:34.716Z,12.90
2022-09-15T01:03:03.210Z,16.23
2022-09-15T01:05:37.887Z,14.75
2022-09-15T01:08:10.054Z,14.68
2022-09-15T01:13:11.954Z,15.15
2022-09-15T01:16:00.434Z,13.02
2022-09-15T01:18:45.799Z,17.98
2022-09-15T01:21:27.693Z,11.18
2022-09-15T01:24:36.508Z,17.48
2022-09-15T01:27:40.383Z,11.55
2022-09-15T01:30:08.813Z,15.88
2022-09-15T01:33:05.200Z,16.40
2022-09-15T01:35:56.474Z,13.77
2022-09-15T01:38:29.206Z,17.67
2022-09-15T01:41:29.665Z,12.38
2022-09-15T01:44:28.056Z,16.90
2022-09-15T01:46:58.871Z,18.48
2022-09-15T01:49:30.315Z,14.05
2022-09-15T01:51:57.007Z,10.88
2022-09-15T01:54:29.826Z,16.67
2022-09-15T01:56:57.266Z,18.25
2022-09-15T01:59:24.127Z,18.13
2022-09-15T02:01:59.616Z,15.80
2022-09-15T02:04:47.323Z,19.20
2022-09-15T02:07:32.288Z,14.23
2022-09-15T02:10:11.649Z,13.48
2022-09-15T02:12:43.341Z,13.55
2022-09-15T02:15:15.143Z,13.68
2022-09-15T02:17:46.219Z,14.68
2022-09-15T02:20:29.871Z,14.43
2022-09-15T02:23:00.865Z,10.70
2022-09-15T02:25:38.470Z,11.88
2022-09-15T02:28:08.489Z,10.55
2022-09-15T02:30:41.212Z,13.68
2022-09-15T02:33:12.409Z,14.75
2022-09-15T02:35:41.068Z,20.23
2022-09-15T02:38:09.636Z,15.57
2022-09-15T02:40:39.640Z,15.70
2022-09-15T02:43:11.528Z,19.35
2022-09-15T02:45:38.456Z,14.07
2022-09-15T02:48:05.509Z,18.77
2022-09-15T02:50:32.100Z,15.38
2022-09-15T02:52:58.679Z,15.45
2022-09-15T02:55:29.125Z,15.45
2022-09-15T02:57:56.944Z,20.65
2022-09-15T03:00:24.293Z,13.73
2022-09-15T03:02:53.631Z,19.10
2022-09-15T03:05:22.914Z,16.55
2022-09-15T03:07:50.932Z,11.32
2022-09-15T03:10:18.173Z,18.33
2022-09-15T03:12:47.817Z,12.85
2022-09-15T03:15:16.890Z,8.65
2022-09-15T03:17:46.523Z,9.75
2022-09-15T03:20:17.649Z,21.40
2022-09-15T03:22:44.431Z,12.10
2022-09-15T03:25:11.386Z,17.08
2022-09-15T03:27:38.460Z,12.57
2022-09-15T03:30:06.675Z,16.90
2022-09-15T03:32:33.341Z,14.38
2022-09-15T03:35:00.038Z,15.82
2022-09-15T03:37:26.793Z,13.75
2022-09-15T03:39:53.593Z,14.80
2022-09-15T03:42:20.802Z,17.95
2022-09-15T03:44:47.408Z,11.35
2022-09-15T03:47:14.125Z,13.35
2022-09-15T03:49:40.718Z,8.80
2022-09-15T03:52:07.330Z,13.07
2022-09-15T03:54:35.519Z,14.25
2022-09-15T03:57:03.431Z,15.45
2022-09-15T03:59:30.081Z,14.60
2022-09-15T04:01:56.853Z,14.23
2022-09-15T04:04:23.545Z,14.98
2022-09-15T04:06:50.145Z,13.40
2022-09-15T04:09:16.773Z,15.50
2022-09-15T04:11:43.421Z,13.82
2022-09-15T04:14:10.074Z,13.60
2022-09-15T04:16:36.694Z,17.35
2022-09-15T04:19:03.859Z,15.00
2022-09-15T04:21:32.086Z,17.33
2022-09-15T04:23:58.769Z,10.30
2022-09-15T04:26:32.728Z,12.23
2022-09-15T04:29:03.896Z,10.65
2022-09-15T04:31:32.510Z,16.55
2022-09-15T04:33:59.466Z,14.68
2022-09-15T04:36:28.537Z,18.77
2022-09-15T04:38:55.979Z,25.58
2022-09-15T04:41:25.638Z,15.15
2022-09-15T04:43:52.537Z,19.17
2022-09-15T04:46:20.007Z,21.00
2022-09-15T04:48:48.695Z,23.73
2022-09-15T04:51:18.844Z,13.20
2022-09-15T04:53:46.488Z,17.25
2022-09-15T04:56:16.456Z,21.67
2022-09-15T04:58:49.530Z,16.77
2022-09-15T05:01:30.267Z,22.02
2022-09-15T05:03:57.052Z,14.48
2022-09-15T05:06:27.077Z,22.77
2022-09-15T05:08:56.656Z,18.98
2022-09-15T05:11:25.332Z,21.80
2022-09-15T05:13:52.328Z,26.33
2022-09-15T05:16:22.094Z,22.65
2022-09-15T05:18:50.437Z,20.17
2022-09-15T05:21:19.168Z,25.38
2022-09-15T05:23:46.482Z,26.95
2022-09-15T05:26:16.466Z,29.45
2022-09-15T05:28:43.339Z,17.25
2022-09-15T05:31:18.073Z,27.60
2022-09-15T05:33:48.196Z,25.02
2022-09-15T05:36:17.344Z,22.98
2022-09-15T05:38:44.808Z,23.73
2022-09-15T05:41:13.757Z,28.15
2022-09-15T05:43:41.726Z,23.67
2022-09-15T05:46:08.525Z,25.63
2022-09-15T05:48:35.326Z,25.02
2022-09-15T05:51:02.856Z,25.83
2022-09-15T05:53:31.045Z,13.90
2022-09-15T05:55:59.578Z,19.10
2022-09-15T05:58:27.519Z,22.42
2022-09-15T06:00:54.664Z,16.80
2022-09-15T06:03:27.457Z,14.38
2022-09-15T06:05:59.620Z,13.93
2022-09-15T06:08:32.481Z,12.80
2022-09-15T06:11:04.338Z,17.15
2022-09-15T06:13:30.985Z,15.05
2022-09-15T06:16:02.685Z,14.65
2022-09-15T06:18:29.368Z,17.00
2022-09-15T06:20:55.957Z,13.98
2022-09-15T06:23:22.548Z,18.00
2022-09-15T06:25:49.194Z,13.27
2022-09-15T06:28:15.760Z,15.25
2022-09-15T06:30:43.021Z,15.07
2022-09-15T06:33:09.627Z,14.70
2022-09-15T06:35:36.241Z,10.88
2022-09-15T06:38:03.187Z,14.13
2022-09-15T06:40:30.812Z,14.18
2022-09-15T06:42:57.525Z,10.57
2022-09-15T06:45:24.133Z,12.55
2022-09-15T06:48:13.431Z,13.00
2022-09-15T06:50:38.986Z,11.63
2022-09-15T06:53:05.603Z,11.63
2022-09-15T06:55:32.233Z,10.70
2022-09-15T06:57:58.907Z,10.82
2022-09-15T07:00:25.860Z,11.80
2022-09-15T07:02:53.681Z,12.77
2022-09-15T07:05:20.386Z,10.90
2022-09-15T07:07:46.977Z,13.27
2022-09-15T07:10:13.582Z,10.63
2022-09-15T07:12:40.196Z,8.35
2022-09-15T07:15:07.348Z,14.60
2022-09-15T07:17:33.966Z,19.52
2022-09-15T07:20:02.237Z,13.70
2022-09-15T07:22:28.901Z,10.68
2022-09-15T07:24:55.525Z,10.63
2022-09-15T07:27:26.251Z,9.93
2022-09-15T07:29:52.790Z,14.35
2022-09-15T07:32:19.435Z,7.15
2022-09-15T07:34:46.734Z,12.00
2022-09-15T07:37:13.365Z,13.45
2022-09-15T07:39:39.933Z,10.07
2022-09-15T07:42:06.586Z,9.73
2022-09-15T07:44:33.181Z,11.10
2022-09-15T07:46:59.793Z,14.00
2022-09-15T07:49:26.581Z,11.05
2022-09-15T07:51:53.325Z,8.15
2022-09-15T07:54:22.875Z,8.73
2022-09-15T07:56:49.892Z,12.15
2022-09-15T07:59:16.505Z,9.35
2022-09-15T08:01:43.193Z,14.00
2022-09-15T08:04:09.912Z,9.02
2022-09-15T08:06:37.012Z,11.57
2022-09-15T08:09:03.872Z,8.38
2022-09-15T08:11:30.781Z,14.38
2022-09-15T08:14:02.277Z,6.47
2022-09-15T08:16:29.049Z,13.32
2022-09-15T08:18:55.956Z,7.78
2022-09-15T08:21:23.896Z,9.68
2022-09-15T08:23:56.427Z,9.38
2022-09-15T08:26:23.917Z,9.95
2022-09-15T08:28:50.610Z,9.23
2022-09-15T08:31:18.103Z,7.97
2022-09-15T08:33:49.722Z,9.07
2022-09-15T08:36:16.610Z,11.07
2022-09-15T08:38:44.817Z,11.70
2022-09-15T08:41:18.816Z,13.02
2022-09-15T08:44:02.110Z,13.52
2022-09-15T08:46:39.625Z,14.38
2022-09-15T08:49:47.378Z,10.07
2022-09-15T08:52:22.223Z,6.05
2022-09-15T08:54:53.689Z,10.77
2022-09-15T08:57:24.358Z,11.68
2022-09-15T08:59:50.992Z,7.13
2022-09-15T09:02:54.727Z,10.13
2022-09-15T09:05:41.258Z,10.15
2022-09-15T09:08:16.892Z,17.65
2022-09-15T09:11:14.882Z,5.25
2022-09-15T09:14:00.150Z,7.20
2022-09-15T09:16:29.625Z,6.05
2022-09-15T09:19:19.669Z,11.43
2022-09-15T09:21:59.873Z,11.10
2022-09-15T09:24:43.054Z,8.90
2022-09-15T09:27:19.169Z,6.57
2022-09-15T09:29:51.044Z,10.35
2022-09-15T09:32:25.204Z,9.43
2022-09-15T09:35:06.498Z,9.38
2022-09-15T09:37:33.725Z,6.07
2022-09-15T09:40:00.828Z,11.77
2022-09-15T09:42:31.782Z,14.95
2022-09-15T09:44:58.459Z,7.70
2022-09-15T09:47:32.481Z,9.93
2022-09-15T09:49:59.966Z,8.05
2022-09-15T09:52:37.825Z,6.20
2022-09-15T09:55:25.017Z,9.20
2022-09-15T09:57:51.887Z,9.38
2022-09-15T10:00:36.561Z,7.70
2022-09-15T10:03:32.983Z,7.63
2022-09-15T10:06:04.253Z,9.82
2022-09-15T10:08:31.320Z,7.80
2022-09-15T10:11:05.889Z,8.05
2022-09-15T10:13:35.636Z,6.40
2022-09-15T10:16:05.429Z,8.00
2022-09-15T10:18:38.902Z,8.88
2022-09-15T10:21:08.885Z,7.40
2022-09-15T10:23:36.215Z,8.20
2022-09-15T10:26:19.184Z,6.82
2022-09-15T10:29:13.696Z,7.75
2022-09-15T10:31:41.282Z,17.30
2022-09-15T10:34:30.573Z,6.15
2022-09-15T10:37:10.948Z,7.93
2022-09-15T10:39:54.366Z,14.65
2022-09-15T10:42:48.960Z,9.43
2022-09-15T10:45:34.432Z,4.80
2022-09-15T10:48:19.081Z,4.07
2022-09-15T10:51:21.733Z,13.23
2022-09-15T10:54:21.838Z,6.72
2022-09-15T10:56:57.509Z,7.47
2022-09-15T10:59:43.508Z,8.02
2022-09-15T11:03:12.285Z,8.80
2022-09-15T11:06:17.480Z,6.43
2022-09-15T11:09:00.366Z,7.18
2022-09-15T11:11:44.488Z,4.28
2022-09-15T11:14:45.067Z,9.82
2022-09-15T11:17:14.316Z,8.40
2022-09-15T11:20:29.280Z,8.60
2022-09-15T11:23:14.669Z,10.27
2022-09-15T11:25:46.848Z,5.70
2022-09-15T11:28:22.699Z,8.00
2022-09-15T11:30:55.361Z,9.48
2022-09-15T11:33:31.142Z,2.88
2022-09-15T11:36:11.748Z,4.72
2022-09-15T11:38:48.329Z,6.78
2022-09-15T11:41:40.832Z,6.72
2022-09-15T11:44:19.169Z,3.90
2022-09-15T11:47:01.725Z,3.55
2022-09-15T11:50:25.466Z,7.47
2022-09-15T11:53:00.661Z,5.80
2022-09-15T11:55:43.538Z,4.05
2022-09-15T11:58:51.793Z,8.00
2022-09-15T12:01:25.809Z,4.75
2022-09-15T12:04:24.917Z,6.90
2022-09-15T12:06:54.332Z,14.32
2022-09-15T12:09:21.592Z,10.45
2022-09-15T12:11:52.966Z,5.60
2022-09-15T12:14:32.369Z,6.00
2022-09-15T12:16:59.927Z,13.43
2022-09-15T12:19:33.564Z,14.02
2022-09-15T12:22:19.544Z,8.43
2022-09-15T12:24:51.298Z,4.28
2022-09-15T12:29:50.880Z,5.93
2022-09-15T12:32:17.575Z,11.85
2022-09-15T12:35:01.490Z,9.88
2022-09-15T12:37:39.853Z,7.05
2022-09-15T12:40:25.243Z,14.30
2022-09-15T12:42:52.620Z,10.13
2022-09-15T12:45:30.674Z,4.15
2022-09-15T12:48:00.916Z,13.20
2022-09-15T12:50:51.911Z,5.53
2022-09-15T12:53:23.442Z,5.82
2022-09-15T12:56:02.677Z,7.00
2022-09-15T12:58:37.052Z,18.38
2022-09-15T13:01:19.403Z,7.60
2022-09-15T13:03:46.467Z,6.03
2022-09-15T13:06:27.266Z,7.50
2022-09-15T13:09:34.025Z,8.38
2022-09-15T13:12:04.433Z,6.10
2022-09-15T13:14:39.964Z,3.70
2022-09-15T13:17:22.788Z,10.50
2022-09-15T13:19:52.976Z,11.80
2022-09-15T13:22:34.841Z,11.40
2022-09-15T13:27:45.931Z,5.80
2022-09-15T13:30:21.469Z,8.60
2022-09-15T13:33:25.796Z,9.35
2022-09-15T13:35:52.662Z,7.78
2022-09-15T13:38:44.258Z,4.57
2022-09-15T13:41:26.171Z,8.40
2022-09-15T13:44:18.158Z,9.60
2022-09-15T13:47:12.338Z,6.85
2022-09-15T13:49:50.338Z,6.05
2022-09-15T13:52:22.929Z,2.88
2022-09-15T13:55:14.543Z,4.47
2022-09-15T14:00:43.590Z,6.40
2022-09-15T14:03:15.448Z,3.10
2022-09-15T14:08:15.069Z,5.95
2022-09-15T14:11:10.469Z,4.40
2022-09-15T14:13:46.774Z,6.28
2022-09-15T14:16:29.725Z,7.78
2022-09-15T14:18:58.616Z,4.28
2022-09-15T14:21:32.109Z,5.50
2022-09-15T14:24:03.879Z,3.67
2022-09-15T14:29:07.154Z,2.85
2022-09-15T14:31:43.797Z,3.50
2022-09-15T14:34:28.542Z,6.82
2022-09-15T14:37:07.937Z,5.43
2022-09-15T14:39:37.740Z,6.35
2022-09-15T14:42:32.652Z,3.92
2022-09-15T14:48:03.493Z,3.42
2022-09-15T14:50:33.130Z,5.68
2022-09-15T14:53:19.528Z,3.33
2022-09-15T14:56:01.265Z,5.07
2022-09-15T14:58:45.619Z,3.22
2022-09-15T15:01:18.150Z,4.03
2022-09-15T15:03:55.475Z,3.50
2022-09-15T15:06:39.377Z,5.80
2022-09-15T15:09:21.197Z,4.40
2022-09-15T15:11:56.553Z,3.90
2022-09-15T15:17:01.037Z,5.07
2022-09-15T15:19:42.278Z,3.83
2022-09-15T15:22:11.913Z,4.17
2022-09-15T15:24:44.816Z,5.45
2022-09-15T15:27:32.929Z,4.15
2022-09-15T15:30:30.939Z,5.72
2022-09-15T15:33:19.685Z,8.02
2022-09-15T15:35:47.805Z,6.95
2022-09-15T15:38:16.825Z,2.50
2022-09-15T15:40:44.946Z,5.53
2022-09-15T15:43:17.350Z,2.83
2022-09-15T15:46:02.007Z,6.75
2022-09-15T15:48:37.761Z,13.07
2022-09-15T15:51:06.863Z,3.28
2022-09-15T15:53:34.444Z,4.20
2022-09-15T15:56:01.356Z,7.10
2022-09-15T15:58:28.212Z,4.50
2022-09-15T16:00:56.867Z,2.90
2022-09-15T16:03:24.734Z,1.63
2022-09-15T16:05:59.016Z,3.03
2022-09-15T16:08:39.812Z,6.95
2022-09-15T16:11:10.418Z,6.05
2022-09-15T16:13:36.976Z,4.25
2022-09-15T16:16:15.906Z,1.60
2022-09-15T16:18:42.817Z,2.80
2022-09-15T16:21:29.117Z,3.60
2022-09-15T16:23:55.902Z,8.60
2022-09-15T16:26:25.048Z,3.05
2022-09-15T16:28:52.394Z,6.97
2022-09-15T16:31:19.182Z,8.38
2022-09-15T16:33:45.933Z,4.47
2022-09-15T16:36:17.821Z,5.68
2022-09-15T16:38:45.436Z,2.35
2022-09-15T16:41:15.242Z,5.32
2022-09-15T16:43:43.145Z,6.13
2022-09-15T16:46:11.494Z,4.88
2022-09-15T16:48:43.306Z,4.90
2022-09-15T16:51:26.761Z,4.20
2022-09-15T16:53:56.368Z,2.97
2022-09-15T16:56:23.302Z,6.90
2022-09-15T16:58:55.904Z,7.05
2022-09-15T17:01:26.052Z,4.30
2022-09-15T17:03:52.811Z,1.98
2022-09-15T17:06:19.544Z,3.22
2022-09-15T17:08:46.187Z,3.85
2022-09-15T17:11:16.615Z,4.18
2022-09-15T17:13:44.317Z,1.02
2022-09-15T17:16:13.929Z,8.90
2022-09-15T17:18:40.848Z,5.70
2022-09-15T17:21:11.339Z,3.30
2022-09-15T17:23:40.281Z,1.67
2022-09-15T17:26:12.360Z,1.17
2022-09-15T17:31:17.323Z,4.05
2022-09-15T17:33:44.468Z,2.83
2022-09-15T17:36:11.370Z,4.13
2022-09-15T17:38:40.598Z,1.92
2022-09-15T17:41:14.823Z,2.58
2022-09-15T17:43:41.414Z,5.30
2022-09-15T17:46:09.005Z,2.88
2022-09-15T17:48:38.681Z,2.08
2022-09-15T17:51:07.181Z,1.35
2022-09-15T17:53:34.255Z,7.03
2022-09-15T17:56:01.045Z,3.60
2022-09-15T17:58:29.961Z,5.93
2022-09-15T18:00:57.914Z,3.30
2022-09-15T18:03:30.478Z,2.40
2022-09-15T18:05:59.259Z,3.88
2022-09-15T18:08:27.146Z,3.08
2022-09-15T18:10:54.270Z,5.13
2022-09-15T18:13:27.288Z,2.13
2022-09-15T18:15:54.994Z,2.63
2022-09-15T18:18:24.903Z,6.45
2022-09-15T18:20:53.305Z,2.40
2022-09-15T18:23:22.146Z,8.18
2022-09-15T18:25:50.281Z,5.70
2022-09-15T18:28:18.490Z,4.00
2022-09-15T18:30:47.624Z,3.45
2022-09-15T18:33:34.343Z,3.15
2022-09-15T18:36:02.513Z,3.13
2022-09-15T18:38:29.538Z,11.35
2022-09-15T18:40:57.105Z,5.65
2022-09-15T18:43:26.418Z,3.38
2022-09-15T18:45:58.182Z,3.95
2022-09-15T18:48:24.939Z,2.38
2022-09-15T18:50:53.120Z,3.88
2022-09-15T18:53:19.859Z,6.05
2022-09-15T18:55:46.459Z,7.07
2022-09-15T18:58:13.585Z,3.88
2022-09-15T19:00:40.724Z,5.82
2022-09-15T19:03:11.903Z,2.10
2022-09-15T19:05:38.658Z,2.60
2022-09-15T19:08:05.634Z,4.03
2022-09-15T19:10:32.594Z,3.17
2022-09-15T19:12:59.267Z,3.03
2022-09-15T19:15:25.854Z,7.65
2022-09-15T19:17:52.490Z,6.28
2022-09-15T19:20:19.562Z,2.72
2022-09-15T19:22:47.468Z,2.80
2022-09-15T19:25:14.847Z,3.05
2022-09-15T19:27:41.801Z,7.75
2022-09-15T19:30:12.730Z,3.78
2022-09-15T19:32:40.553Z,6.68
2022-09-15T19:35:08.280Z,4.63
2022-09-15T19:37:39.956Z,6.90
2022-09-15T19:40:09.642Z,3.70
2022-09-15T19:42:38.141Z,3.53
2022-09-15T19:45:05.143Z,4.90
2022-09-15T19:47:31.764Z,4.13
2022-09-15T19:49:58.594Z,8.52
2022-09-15T19:52:29.432Z,3.53
2022-09-15T19:54:56.193Z,7.38
2022-09-15T19:57:23.245Z,4.25
2022-09-15T19:59:50.297Z,3.95
2022-09-15T20:02:17.432Z,3.80
2022-09-15T20:04:44.442Z,4.03
2022-09-15T20:07:11.103Z,5.15
2022-09-15T20:09:37.745Z,3.08
2022-09-15T20:12:04.718Z,7.28
2022-09-15T20:14:31.452Z,6.25
2022-09-15T20:17:01.000Z,5.28
2022-09-15T20:19:28.357Z,4.65
2022-09-15T20:21:55.124Z,8.65
2022-09-15T20:24:22.355Z,5.90
2022-09-15T20:26:49.245Z,4.40
2022-09-15T20:29:16.696Z,3.38
2022-09-15T20:31:43.613Z,3.22
2022-09-15T20:34:10.262Z,5.55
2022-09-15T20:36:38.854Z,4.05
2022-09-15T20:39:10.568Z,5.50
2022-09-15T20:41:37.870Z,4.65
2022-09-15T20:44:06.099Z,10.23
2022-09-15T20:46:33.583Z,6.85
2022-09-15T20:49:01.169Z,5.13
2022-09-15T20:51:33.599Z,7.82
2022-09-15T20:54:03.414Z,7.13
2022-09-15T20:56:32.073Z,5.05
2022-09-15T20:59:00.089Z,7.90
2022-09-15T21:01:34.742Z,8.02
2022-09-15T21:04:01.787Z,6.20
2022-09-15T21:06:29.203Z,2.58
2022-09-15T21:08:56.793Z,5.30
2022-09-15T21:11:24.784Z,5.82
2022-09-15T21:13:51.383Z,4.15
2022-09-15T21:16:20.903Z,5.20
2022-09-15T21:18:48.888Z,7.22
2022-09-15T21:21:30.133Z,4.03
2022-09-15T21:24:03.878Z,3.05
2022-09-15T21:26:33.639Z,4.20
2022-09-15T21:29:00.756Z,3.05
2022-09-15T21:31:32.838Z,4.55
2022-09-15T21:36:29.657Z,4.15
2022-09-15T21:38:57.995Z,7.65
2022-09-15T21:41:27.196Z,3.17
2022-09-15T21:43:55.370Z,2.90
2022-09-15T21:46:24.748Z,4.65
2022-09-15T21:48:51.864Z,5.40
2022-09-15T21:51:24.300Z,9.38
2022-09-15T21:53:53.937Z,5.47
2022-09-15T21:56:21.808Z,3.17
2022-09-15T21:58:48.470Z,2.58
2022-09-15T22:01:23.508Z,5.68
2022-09-15T22:03:54.433Z,4.10
2022-09-15T22:06:27.551Z,4.63
2022-09-15T22:08:55.143Z,2.92
2022-09-15T22:11:23.109Z,4.57
2022-09-15T22:13:50.216Z,4.82
2022-09-15T22:16:19.282Z,2.67
2022-09-15T22:18:46.096Z,5.43
2022-09-15T22:21:15.551Z,7.50
2022-09-15T22:23:43.236Z,10.60
2022-09-15T22:26:21.576Z,2.42
2022-09-15T22:28:48.969Z,3.58
2022-09-15T22:31:17.497Z,2.10
2022-09-15T22:33:44.389Z,4.38
2022-09-15T22:36:16.171Z,3.38
2022-09-15T22:38:43.218Z,7.05
2022-09-15T22:41:14.366Z,6.68
2022-09-15T22:43:43.033Z,6.50
2022-09-15T22:46:11.067Z,6.95
2022-09-15T22:48:43.071Z,6.68
2022-09-15T22:51:11.019Z,4.45
2022-09-15T22:53:37.980Z,4.85
2022-09-15T22:56:07.348Z,3.58
2022-09-15T22:58:35.469Z,3.35
2022-09-15T23:01:16.447Z,5.43
2022-09-15T23:03:44.076Z,3.08
2022-09-15T23:06:10.959Z,2.85
2022-09-15T23:08:37.705Z,5.25
2022-09-15T23:11:10.937Z,7.95
2022-09-15T23:13:38.777Z,3.10
2022-09-15T23:16:07.021Z,3.40
2022-09-15T23:18:34.867Z,6.15
2022-09-15T23:21:05.844Z,2.22
2022-09-15T23:23:32.456Z,4.28
2022-09-15T23:25:59.328Z,10.43
2022-09-15T23:28:25.913Z,9.32
2022-09-15T23:30:54.564Z,2.58
2022-09-15T23:33:22.020Z,8.60
2022-09-15T23:35:49.055Z,3.47
2022-09-15T23:38:16.881Z,4.55
2022-09-15T23:40:44.759Z,3.65
2022-09-15T23:43:12.129Z,3.42
2022-09-15T23:45:38.929Z,8.15
2022-09-15T23:48:06.951Z,10.13
2022-09-15T23:50:34.333Z,6.93
2022-09-15T23:53:01.245Z,10.82
2022-09-15T23:55:28.116Z,6.07
2022-09-15T23:57:55.002Z,4.30
